Pagina principale
METAR-TAF:

METAR-TAF

Aeroporti :

Aeroporto di Tirana

Tirana, Albania

latitudine: 41-20N, longitudine: 019-47E, altezza: 89 m

Osservazione

Il bollettino è stato emesso 24 minuti fa, alle 10:20 UTC
Vento 1 kt da direzioni variabili
Temperature 20°C
Umidità 23%
Pressione 1020 hPa
Visibilità 10 km o più
nessuna nube inferiore a 1500 m e nessun cumulonembo

METAR: LATI 261020Z VRB01KT CAVOK 20/M02 Q1020 NOSIG

Ora: 12:44 (10:44 UTC)

Previsione

Il bollettino è stato emesso 5 ore e 44 minuti fa, alle 05:00 UTC
Previsione valida dal 26 alle 06 UTC al 27 alle 06 UTC
Vento 3 kt da direzioni variabili
Visibilità 10 km o più
nessuna nube inferiore a 1500 m e nessun cumulonembo
Temporaneamente
dal 26 alle 10 UTC al 26 alle 16 UTC
Vento 10 kt da nord/nord-ovest

TAF: LATI 260500Z 2606/2706 VRB03KT CAVOK TX23/2612Z TN04/2704Z TEMPO 2610/2616 34010KT

Osservazioni e previsioni meteorologiche di più di 4000 aeroporti (messaggi METAR e TAF).

Le stazioni disponibili sono rappresentate dai dischi gialli e rossi sulla carta.

Puntare il mouse per vedere il nome della stazione.

Clicca sopra per visualizzare le osservazioni e previsioni meteorologiche.

Per cambiare la mappa : fare clic sui pulsanti verdi con una croce nera per ingrandire, il pulsante verde con un trattino per diminuire, o sulla freccia verde per le mappe adiacenti.


METAR-TAF: